Aérodrome :
LOGIN :

S'inscrire | Disclaimer

   EN    FR    IT 

 










Légende :    VFR   VFR Marginal   IFR   IFR Intensif   IFR Très Intensif
Visi : 
Plafond : 
>= 8 km
>= 3000ft
5 à 8 km
1000 à 3000 ft
1500m à 5 km
500 à 1000 ft
800 à 1500m
200 à 500 ft
< 800m
< 200 ft
Symboles :   Orages  Brouillard  Fortes neiges  Fortes précipitations  Vent > 20 kt
SIGMETs :   Divers  Orages  Givrage  Turbulence  Onde Orograph.  Cendres Volcan.







- Altitude de l'aérodrome : 1197 ft
- Code IATA : SPM


ETAD - Spangdahlem Ab

DERNIER METAR :
  • 210756Z AUTO 08007KT 9999 CLR 14/02 A3013 RMK AO2 SLP192 T01370023 $

METARs EXPIRÉS :
  • 210656Z AUTO 05008KT 9999 CLR 12/02 A3014 RMK AO2 SLP196 T01170016 $
  • 210556Z AUTO 06009KT 9999 CLR 10/01 A3013 RMK AO2 SLP194 T01030011 10112 20097 56007 $

TAF TAF ETAD
Valide du 21 à 06h jusqu'au 22 à 12h UTC


210600Z 2106/2212 08006KT 9999 SKC QNH3014INS
BECMG 2107/2108 11012KT 9999 FEW030 QNH2998INS
BECMG 2117/2118 09006KT 9999 FEW030 SCT150 QNH2997INS TX20/2114Z TN08/2205Z
Pas de NOTAMs connus pour ce terrain.



MET'MAP, la Météo Aéronautique d'un coup d'oeil ! - Copyright ORBIFLY Décembre 2007 - Disclaimer

ORBIFLY MET'MAP TEAM :

Programmation & Développement : Alexandra Zaïnal
Conception & Développement : Baudouin d'Aumeries
Co-Programmation & Développement : Marc-Olivier Méhu
Soutien technique & logistique : Manuel Goepfert

Contact : metmap@orbifly.com




SOURCES & CREDITS :

   NOAA